createdAt,value
2023-04-02T00:01:39.035Z,100056.45
2023-04-02T00:03:42.598Z,100056.39
2023-04-02T00:05:51.147Z,100061.30
2023-04-02T00:07:49.099Z,100065.38
2023-04-02T00:09:42.482Z,100060.94
2023-04-02T00:11:37.626Z,100066.72
2023-04-02T00:13:31.411Z,100069.35
2023-04-02T00:15:24.365Z,100067.52
2023-04-02T00:17:17.525Z,100070.17
2023-04-02T00:19:19.890Z,100076.55
2023-04-02T00:21:21.452Z,100074.86
2023-04-02T00:23:15.608Z,100079.11
2023-04-02T00:25:14.102Z,100080.55
2023-04-02T00:27:11.982Z,100082.15
2023-04-02T00:29:06.437Z,100083.83
2023-04-02T00:31:00.418Z,100087.14
2023-04-02T00:32:55.078Z,100087.14
2023-04-02T00:34:49.410Z,100086.52
2023-04-02T00:36:44.194Z,100086.42
2023-04-02T00:38:38.551Z,100087.36
2023-04-02T00:40:32.137Z,100090.39
2023-04-02T00:42:25.682Z,100093.19
2023-04-02T00:44:22.038Z,100090.07
2023-04-02T00:46:18.049Z,100093.77
2023-04-02T00:48:27.359Z,100094.36
2023-04-02T00:50:26.353Z,100096.05
2023-04-02T00:52:25.033Z,100095.35
2023-04-02T00:54:22.046Z,100095.71
2023-04-02T00:56:22.103Z,100097.84
2023-04-02T00:58:35.730Z,100096.60
2023-04-02T01:00:32.284Z,100099.38
2023-04-02T01:02:28.683Z,100105.48
2023-04-02T01:04:31.701Z,100103.85
2023-04-02T01:06:30.743Z,100106.17
2023-04-02T01:08:28.626Z,100106.11
2023-04-02T01:10:46.046Z,100105.61
2023-04-02T01:13:00.803Z,100109.92
2023-04-02T01:15:09.932Z,100120.70
2023-04-02T01:17:08.805Z,100119.63
2023-04-02T01:19:32.387Z,100122.61
2023-04-02T01:21:46.328Z,100123.21
2023-04-02T01:23:59.034Z,100125.70
2023-04-02T01:26:21.986Z,100127.90
2023-04-02T01:28:23.126Z,100127.51
2023-04-02T01:30:16.994Z,100133.30
2023-04-02T01:32:14.149Z,100132.45
2023-04-02T01:34:11.289Z,100134.23
2023-04-02T01:36:30.962Z,100136.16
2023-04-02T01:38:32.112Z,100137.15
2023-04-02T01:40:50.961Z,100139.30
2023-04-02T01:42:54.661Z,100139.55
2023-04-02T01:44:52.728Z,100142.19
2023-04-02T01:46:49.266Z,100147.48
2023-04-02T01:48:42.627Z,100150.91
2023-04-02T01:50:38.900Z,100154.81
2023-04-02T01:52:40.645Z,100158.52
2023-04-02T01:54:37.931Z,100160.11
2023-04-02T01:56:31.622Z,100160.73
2023-04-02T01:58:31.714Z,100162.70
2023-04-02T02:00:27.942Z,100164.29
2023-04-02T02:02:22.125Z,100167.83
2023-04-02T02:04:16.921Z,100164.70
2023-04-02T02:06:15.117Z,100168.23
2023-04-02T02:08:25.344Z,100175.38
2023-04-02T02:10:28.814Z,100172.38
2023-04-02T02:12:22.611Z,100180.02
2023-04-02T02:14:22.209Z,100179.45
2023-04-02T02:16:18.393Z,100182.73
2023-04-02T02:18:12.623Z,100184.26
2023-04-02T02:20:12.506Z,100185.23
2023-04-02T02:22:19.098Z,100187.50
2023-04-02T02:24:27.232Z,100188.29
2023-04-02T02:26:22.887Z,100190.30
2023-04-02T02:28:27.335Z,100189.73
2023-04-02T02:30:22.231Z,100191.09
2023-04-02T02:32:17.977Z,100193.66
2023-04-02T02:34:18.872Z,100197.41
2023-04-02T02:36:22.799Z,100203.80
2023-04-02T02:38:34.270Z,100203.89
2023-04-02T02:40:38.995Z,100203.99
2023-04-02T02:42:37.150Z,100204.46
2023-04-02T02:44:35.025Z,100210.25
2023-04-02T02:46:30.722Z,100211.38
2023-04-02T02:48:28.593Z,100213.23
2023-04-02T02:50:26.090Z,100220.81
2023-04-02T02:52:21.973Z,100220.52
2023-04-02T02:54:20.037Z,100221.64
2023-04-02T02:56:14.207Z,100221.17
2023-04-02T02:58:19.541Z,100225.25
2023-04-02T03:00:24.889Z,100231.00
2023-04-02T03:02:19.511Z,100231.86
2023-04-02T03:04:14.424Z,100239.27
2023-04-02T03:06:10.244Z,100241.48
2023-04-02T03:08:09.607Z,100249.13
2023-04-02T03:10:20.759Z,100242.58
2023-04-02T03:12:32.626Z,100251.11
2023-04-02T03:15:24.169Z,100252.58
2023-04-02T03:17:39.470Z,100257.88
2023-04-02T03:19:43.284Z,100261.20
2023-04-02T03:21:56.055Z,100261.95
2023-04-02T03:23:57.296Z,100266.08
2023-04-02T03:26:02.022Z,100265.96
2023-04-02T03:28:01.864Z,100269.70
2023-04-02T03:30:27.825Z,100272.84
2023-04-02T03:32:26.940Z,100270.14
2023-04-02T03:34:26.030Z,100274.23
2023-04-02T03:36:28.938Z,100279.33
2023-04-02T03:38:37.027Z,100283.10
2023-04-02T03:40:38.682Z,100282.33
2023-04-02T03:42:46.280Z,100288.34
2023-04-02T03:44:56.481Z,100291.85
2023-04-02T03:46:58.382Z,100297.51
2023-04-02T03:48:57.965Z,100297.51
2023-04-02T03:51:06.192Z,100301.65
2023-04-02T03:53:01.593Z,100303.33
2023-04-02T03:54:57.375Z,100306.06
2023-04-02T03:56:52.684Z,100311.52
2023-04-02T03:59:01.752Z,100312.27
2023-04-02T04:01:17.729Z,100313.13
2023-04-02T04:03:26.760Z,100321.02
2023-04-02T04:05:26.359Z,100322.90
2023-04-02T04:07:33.044Z,100327.38
2023-04-02T04:09:32.245Z,100331.28
2023-04-02T04:11:30.738Z,100331.55
2023-04-02T04:13:43.515Z,100335.80
2023-04-02T04:15:45.787Z,100342.13
2023-04-02T04:18:35.094Z,100341.87
2023-04-02T04:20:46.149Z,100347.86
2023-04-02T04:22:41.121Z,100356.64
2023-04-02T04:24:45.652Z,100356.70
2023-04-02T04:26:56.524Z,100362.60
2023-04-02T04:29:27.149Z,100367.27
2023-04-02T04:31:39.254Z,100368.02
2023-04-02T04:33:43.700Z,100380.13
2023-04-02T04:35:46.779Z,100382.02
2023-04-02T04:37:45.092Z,100381.80
2023-04-02T04:39:46.409Z,100384.98
2023-04-02T04:41:42.314Z,100392.45
2023-04-02T04:43:45.666Z,100390.80
2023-04-02T04:45:47.760Z,100399.22
2023-04-02T04:48:18.052Z,100396.48
2023-04-02T04:50:21.548Z,100397.38
2023-04-02T04:52:33.044Z,100401.42
2023-04-02T04:54:28.231Z,100407.54
2023-04-02T04:56:26.725Z,100410.46
2023-04-02T04:58:27.830Z,100413.42
2023-04-02T05:00:48.223Z,100416.58
2023-04-02T05:03:07.199Z,100417.63
2023-04-02T05:05:02.384Z,100422.02
2023-04-02T05:07:03.174Z,100421.56
2023-04-02T05:09:01.348Z,100431.17
2023-04-02T05:11:03.569Z,100433.92
2023-04-02T05:13:09.521Z,100438.37
2023-04-02T05:15:18.063Z,100442.34
2023-04-02T05:17:19.172Z,100439.75
2023-04-02T05:19:26.147Z,100444.20
2023-04-02T05:21:27.939Z,100450.59
2023-04-02T05:23:29.764Z,100450.63
2023-04-02T05:25:26.332Z,100453.45
2023-04-02T05:27:33.782Z,100456.45
2023-04-02T05:29:36.975Z,100456.64
2023-04-02T05:31:56.140Z,100458.80
2023-04-02T05:33:50.420Z,100467.14
2023-04-02T05:35:48.531Z,100462.48
2023-04-02T05:37:42.285Z,100465.59
2023-04-02T05:39:35.383Z,100466.50
2023-04-02T05:41:40.540Z,100466.20
2023-04-02T05:43:36.847Z,100468.48
2023-04-02T05:45:36.496Z,100467.44
2023-04-02T05:47:32.652Z,100467.64
2023-04-02T05:50:10.392Z,100474.96
2023-04-02T05:52:20.548Z,100479.91
2023-04-02T05:54:23.399Z,100477.81
2023-04-02T05:56:24.059Z,100483.80
2023-04-02T06:01:12.108Z,100487.60
2023-04-02T06:03:20.365Z,100490.77
2023-04-02T06:05:20.414Z,100494.05
2023-04-02T06:07:18.499Z,100501.32
2023-04-02T06:09:27.776Z,100502.37
2023-04-02T06:11:47.915Z,100507.39
2023-04-02T06:13:43.831Z,100513.73
2023-04-02T06:15:38.418Z,100519.64
2023-04-02T06:18:06.844Z,100521.11
2023-04-02T06:20:06.202Z,100524.06
2023-04-02T06:22:08.923Z,100529.83
2023-04-02T06:24:05.504Z,100531.67
2023-04-02T06:26:05.475Z,100528.11
2023-04-02T06:28:02.077Z,100530.86
2023-04-02T06:30:01.094Z,100534.39
2023-04-02T06:32:00.443Z,100540.61
2023-04-02T06:33:55.212Z,100538.21
2023-04-02T06:35:51.968Z,100547.34
2023-04-02T06:37:56.274Z,100544.39
2023-04-02T06:39:53.036Z,100545.75
2023-04-02T06:41:46.891Z,100550.07
2023-04-02T06:44:05.137Z,100552.27
2023-04-02T06:46:26.860Z,100554.71
2023-04-02T06:48:26.155Z,100558.91
2023-04-02T06:50:29.036Z,100562.92
2023-04-02T06:52:34.660Z,100565.71
2023-04-02T06:54:28.396Z,100568.41
2023-04-02T06:56:41.073Z,100574.33
2023-04-02T06:58:34.110Z,100575.71
2023-04-02T07:00:38.380Z,100579.08
2023-04-02T07:02:39.573Z,100583.75
2023-04-02T07:04:34.800Z,100584.83
2023-04-02T07:06:28.739Z,100591.21
2023-04-02T07:08:25.067Z,100594.85
2023-04-02T07:10:20.370Z,100592.61
2023-04-02T07:12:14.750Z,100591.06
2023-04-02T07:14:13.323Z,100597.04
2023-04-02T07:16:08.988Z,100599.73
2023-04-02T07:18:02.239Z,100599.36
2023-04-02T07:19:55.546Z,100602.02
2023-04-02T07:21:49.618Z,100604.06
2023-04-02T07:23:43.316Z,100607.67
2023-04-02T07:25:36.678Z,100608.38
2023-04-02T07:27:30.820Z,100609.99
2023-04-02T07:29:23.665Z,100613.02
2023-04-02T07:31:24.839Z,100615.34
2023-04-02T07:33:21.604Z,100613.59
2023-04-02T07:35:15.113Z,100623.21
2023-04-02T07:37:08.563Z,100626.17
2023-04-02T07:39:02.231Z,100630.64
2023-04-02T07:40:55.105Z,100632.23
2023-04-02T07:42:48.538Z,100632.25
2023-04-02T07:44:41.528Z,100634.41
2023-04-02T07:46:34.575Z,100642.16
2023-04-02T07:48:27.997Z,100638.12
2023-04-02T07:50:21.305Z,100642.29
2023-04-02T07:52:14.205Z,100643.46
2023-04-02T07:54:10.397Z,100651.69
2023-04-02T07:56:04.809Z,100654.16
2023-04-02T07:57:59.994Z,100663.20
2023-04-02T07:59:56.523Z,100661.90
2023-04-02T08:01:49.842Z,100668.52
2023-04-02T08:03:43.154Z,100673.02
2023-04-02T08:05:36.641Z,100672.61
2023-04-02T08:07:29.870Z,100675.39
2023-04-02T08:09:23.131Z,100682.39
2023-04-02T08:11:17.096Z,100683.40
2023-04-02T08:13:09.946Z,100683.27
2023-04-02T08:15:03.923Z,100686.41
2023-04-02T08:16:57.105Z,100686.54
2023-04-02T08:18:50.219Z,100686.70
2023-04-02T08:20:43.226Z,100692.84
2023-04-02T08:22:36.532Z,100694.19
2023-04-02T08:24:29.482Z,100695.39
2023-04-02T08:26:22.530Z,100698.80
2023-04-02T08:28:15.623Z,100698.52
2023-04-02T08:30:11.712Z,100701.42
2023-04-02T08:32:04.649Z,100702.15
2023-04-02T08:33:57.698Z,100706.66
2023-04-02T08:35:51.324Z,100707.41
2023-04-02T08:37:44.312Z,100709.05
2023-04-02T08:39:37.466Z,100712.33
2023-04-02T08:41:37.321Z,100713.19
2023-04-02T08:43:39.060Z,100715.59
2023-04-02T08:45:50.742Z,100712.88
2023-04-02T08:47:44.534Z,100713.52
2023-04-02T08:49:51.369Z,100713.69
2023-04-02T08:51:46.364Z,100710.82
2023-04-02T08:53:41.947Z,100714.30
2023-04-02T08:55:43.061Z,100715.34
2023-04-02T08:57:49.923Z,100717.56
2023-04-02T08:59:44.871Z,100721.16
2023-04-02T09:01:49.532Z,100727.52
2023-04-02T09:03:47.368Z,100731.25
2023-04-02T09:05:43.221Z,100726.90
2023-04-02T09:07:36.322Z,100731.69
2023-04-02T09:09:34.924Z,100734.59
2023-04-02T09:11:42.411Z,100739.80
2023-04-02T09:13:42.919Z,100747.05
2023-04-02T09:15:36.968Z,100742.74
2023-04-02T09:17:36.939Z,100748.98
2023-04-02T09:19:46.155Z,100752.65
2023-04-02T09:22:03.864Z,100755.64
2023-04-02T09:23:58.042Z,100759.46
2023-04-02T09:26:03.531Z,100761.91
2023-04-02T09:28:01.812Z,100766.95
2023-04-02T09:30:06.793Z,100771.38
2023-04-02T09:32:08.858Z,100773.10
2023-04-02T09:34:02.938Z,100777.77
2023-04-02T09:35:58.112Z,100779.36
2023-04-02T09:38:15.768Z,100781.20
2023-04-02T09:40:28.055Z,100782.51
2023-04-02T09:42:38.247Z,100789.96
2023-04-02T09:44:31.359Z,100793.77
2023-04-02T09:46:26.023Z,100795.20
2023-04-02T09:48:27.909Z,100794.00
2023-04-02T09:50:20.966Z,100796.06
2023-04-02T09:52:20.449Z,100799.52
2023-04-02T09:54:17.262Z,100799.13
2023-04-02T09:56:17.949Z,100797.34
2023-04-02T09:58:16.826Z,100802.06
2023-04-02T10:00:31.611Z,100801.84
2023-04-02T10:02:30.005Z,100803.51
2023-04-02T10:04:49.764Z,100806.73
2023-04-02T10:06:49.899Z,100807.55
2023-04-02T10:08:44.827Z,100813.79
2023-04-02T10:10:41.057Z,100814.23
2023-04-02T10:12:41.793Z,100814.23
2023-04-02T10:14:39.953Z,100816.08
2023-04-02T10:16:53.826Z,100816.79
2023-04-02T10:19:00.025Z,100822.35
2023-04-02T10:20:56.399Z,100823.11
2023-04-02T10:22:50.359Z,100827.20
2023-04-02T10:24:43.614Z,100836.00
2023-04-02T10:26:45.885Z,100830.45
2023-04-02T10:28:52.656Z,100836.84
2023-04-02T10:30:58.432Z,100841.36
2023-04-02T10:32:54.461Z,100844.86
2023-04-02T10:35:02.000Z,100847.43
2023-04-02T10:37:37.259Z,100847.80
2023-04-02T10:39:41.593Z,100848.33
2023-04-02T10:41:57.558Z,100848.55
2023-04-02T10:44:17.088Z,100851.56
2023-04-02T10:46:24.992Z,100856.73
2023-04-02T10:48:37.344Z,100856.24
2023-04-02T10:50:54.450Z,100854.45
2023-04-02T10:52:57.965Z,100854.83
2023-04-02T10:54:53.903Z,100856.64
2023-04-02T10:56:50.941Z,100864.65
2023-04-02T10:59:22.784Z,100858.67
2023-04-02T11:01:22.518Z,100866.09
2023-04-02T11:03:30.549Z,100869.90
2023-04-02T11:05:33.258Z,100871.36
2023-04-02T11:07:29.114Z,100878.21
2023-04-02T11:09:28.604Z,100882.27
2023-04-02T11:11:26.539Z,100886.29
2023-04-02T11:13:28.551Z,100891.94
2023-04-02T11:15:22.502Z,100888.85
2023-04-02T11:17:17.533Z,100892.48
2023-04-02T11:19:16.843Z,100897.77
2023-04-02T11:21:57.244Z,100895.35
2023-04-02T11:24:04.301Z,100900.78
2023-04-02T11:26:37.589Z,100902.59
2023-04-02T11:28:32.900Z,100901.77
2023-04-02T11:30:27.795Z,100903.26
2023-04-02T11:32:21.270Z,100909.35
2023-04-02T11:34:42.173Z,100914.49
2023-04-02T11:36:50.081Z,100920.30
2023-04-02T11:38:46.583Z,100918.08
2023-04-02T11:40:54.882Z,100923.54
2023-04-02T11:42:49.829Z,100924.06
2023-04-02T11:44:42.942Z,100928.06
2023-04-02T11:46:39.928Z,100930.33
2023-04-02T11:48:36.676Z,100932.34
2023-04-02T11:50:36.675Z,100937.20
2023-04-02T11:52:49.481Z,100940.86
2023-04-02T11:54:42.702Z,100942.35
2023-04-02T11:56:48.292Z,100951.38
2023-04-02T11:58:55.230Z,100941.42
2023-04-02T12:01:26.467Z,100941.00
2023-04-02T12:03:34.057Z,100945.57
2023-04-02T12:05:37.748Z,100945.97
2023-04-02T12:08:07.878Z,100945.17
2023-04-02T12:10:05.764Z,100952.02
2023-04-02T12:12:15.002Z,100952.84
2023-04-02T12:14:42.019Z,100951.50
2023-04-02T12:16:35.645Z,100955.06
2023-04-02T12:18:28.733Z,100958.13
2023-04-02T12:20:27.520Z,100960.84
2023-04-02T12:22:32.079Z,100964.09
2023-04-02T12:24:31.450Z,100961.79
2023-04-02T12:26:42.417Z,100964.71
2023-04-02T12:28:38.546Z,100970.88
2023-04-02T12:30:31.581Z,100972.83
2023-04-02T12:32:30.349Z,100976.93
2023-04-02T12:34:26.950Z,100977.29
2023-04-02T12:36:22.498Z,100980.59
2023-04-02T12:38:21.986Z,100981.70
2023-04-02T12:40:18.445Z,100984.05
2023-04-02T12:42:27.232Z,100986.58
2023-04-02T12:44:23.687Z,100985.99
2023-04-02T12:46:16.943Z,100990.49
2023-04-02T12:48:13.684Z,100991.89
2023-04-02T12:50:07.647Z,100995.91
2023-04-02T12:52:04.184Z,100994.61
2023-04-02T12:53:57.445Z,100998.06
2023-04-02T12:55:52.272Z,101001.13
2023-04-02T12:57:49.277Z,100999.98
2023-04-02T12:59:43.758Z,101002.32
2023-04-02T13:01:36.648Z,101002.71
2023-04-02T13:03:29.671Z,101010.55
2023-04-02T13:05:42.648Z,101007.56
2023-04-02T13:07:35.939Z,101011.08
2023-04-02T13:09:35.953Z,101010.33
2023-04-02T13:11:40.537Z,101011.59
2023-04-02T13:13:41.821Z,101010.75
2023-04-02T13:15:36.818Z,101016.29
2023-04-02T13:17:43.951Z,101019.75
2023-04-02T13:19:36.969Z,101015.87
2023-04-02T13:21:30.912Z,101020.20
2023-04-02T13:23:29.831Z,101018.01
2023-04-02T13:25:29.365Z,101020.50
2023-04-02T13:27:22.498Z,101020.03
2023-04-02T13:29:24.006Z,101019.55
2023-04-02T13:31:17.181Z,101019.02
2023-04-02T13:33:10.045Z,101015.87
2023-04-02T13:35:02.814Z,101023.27
2023-04-02T13:36:57.543Z,101020.66
2023-04-02T13:38:50.812Z,101030.16
2023-04-02T13:40:43.858Z,101030.33
2023-04-02T13:42:36.788Z,101029.69
2023-04-02T13:44:31.940Z,101032.89
2023-04-02T13:46:28.118Z,101033.69
2023-04-02T13:48:24.751Z,101036.48
2023-04-02T13:50:20.565Z,101040.91
2023-04-02T13:52:15.992Z,101041.11
2023-04-02T13:54:17.732Z,101041.23
2023-04-02T13:56:10.575Z,101041.79
2023-04-02T13:58:04.646Z,101043.69
2023-04-02T13:59:57.501Z,101048.06
2023-04-02T14:01:53.325Z,101046.21
2023-04-02T14:03:46.763Z,101050.64
2023-04-02T14:05:52.103Z,101050.92
2023-04-02T14:07:58.466Z,101053.01
2023-04-02T14:10:11.793Z,101049.08
2023-04-02T14:12:55.635Z,101056.66
2023-04-02T14:15:07.223Z,101055.85
2023-04-02T14:17:06.279Z,101057.24
2023-04-02T14:19:05.199Z,101058.28
2023-04-02T14:21:29.379Z,101057.59
2023-04-02T14:23:38.207Z,101066.15
2023-04-02T14:25:45.187Z,101062.19
2023-04-02T14:27:49.996Z,101068.88
2023-04-02T14:29:51.268Z,101072.47
2023-04-02T14:32:04.826Z,101073.75
2023-04-02T14:34:15.043Z,101073.96
2023-04-02T14:36:46.185Z,101078.61
2023-04-02T14:38:48.647Z,101078.55
2023-04-02T14:41:00.025Z,101085.90
2023-04-02T14:43:17.365Z,101085.11
2023-04-02T14:45:20.742Z,101088.09
2023-04-02T14:47:16.839Z,101094.06
2023-04-02T14:49:35.919Z,101093.48
2023-04-02T14:52:04.400Z,101095.86
2023-04-02T14:54:15.578Z,101097.17
2023-04-02T14:56:11.703Z,101097.92
2023-04-02T14:58:15.808Z,101094.89
2023-04-02T15:00:24.317Z,101093.41
2023-04-02T15:02:25.418Z,101098.90
2023-04-02T15:04:23.322Z,101098.45
2023-04-02T15:06:24.261Z,101099.88
2023-04-02T15:08:24.424Z,101101.13
2023-04-02T15:10:32.525Z,101104.85
2023-04-02T15:12:33.414Z,101104.73
2023-04-02T15:14:38.655Z,101109.45
2023-04-02T15:16:33.346Z,101111.77
2023-04-02T15:18:27.140Z,101114.45
2023-04-02T15:20:20.481Z,101116.54
2023-04-02T15:22:35.857Z,101121.31
2023-04-02T15:24:43.445Z,101124.77
2023-04-02T15:27:09.306Z,101126.05
2023-04-02T15:29:33.440Z,101127.14
2023-04-02T15:31:28.298Z,101131.90
2023-04-02T15:33:42.068Z,101133.02
2023-04-02T15:35:52.436Z,101140.67
2023-04-02T15:38:00.624Z,101147.77
2023-04-02T15:40:08.196Z,101148.58
2023-04-02T15:42:27.601Z,101151.60
2023-04-02T15:44:20.739Z,101156.52
2023-04-02T15:46:26.200Z,101158.16
2023-04-02T15:48:30.052Z,101160.05
2023-04-02T15:50:50.955Z,101166.05
2023-04-02T15:53:07.198Z,101165.78
2023-04-02T15:55:26.038Z,101169.45
2023-04-02T15:57:41.824Z,101176.98
2023-04-02T15:59:48.795Z,101179.60
2023-04-02T16:02:05.621Z,101181.29
2023-04-02T16:04:22.205Z,101183.44
2023-04-02T16:06:26.873Z,101188.73
2023-04-02T16:08:31.042Z,101192.61
2023-04-02T16:10:42.489Z,101196.22
2023-04-02T16:12:39.110Z,101200.38
2023-04-02T16:14:34.058Z,101201.09
2023-04-02T16:16:33.058Z,101200.13
2023-04-02T16:18:55.178Z,101203.47
2023-04-02T16:20:51.080Z,101209.19
2023-04-02T16:22:59.293Z,101210.88
2023-04-02T16:25:00.462Z,101217.71
2023-04-02T16:26:57.688Z,101221.39
2023-04-02T16:29:12.354Z,101220.78
2023-04-02T16:31:24.585Z,101227.66
2023-04-02T16:33:41.658Z,101230.77
2023-04-02T16:35:43.588Z,101236.31
2023-04-02T16:37:50.394Z,101244.20
2023-04-02T16:39:52.858Z,101246.75
2023-04-02T16:41:59.532Z,101250.95
2023-04-02T16:44:24.946Z,101252.54
2023-04-02T16:46:39.011Z,101260.42
2023-04-02T16:48:35.819Z,101259.32
2023-04-02T16:50:44.441Z,101263.19
2023-04-02T16:52:48.035Z,101263.89
2023-04-02T16:55:12.883Z,101266.29
2023-04-02T16:57:21.185Z,101276.13
2023-04-02T16:59:36.480Z,101276.97
2023-04-02T17:01:41.930Z,101278.63
2023-04-02T17:03:57.210Z,101279.73
2023-04-02T17:06:01.999Z,101289.05
2023-04-02T17:08:30.528Z,101290.70
2023-04-02T17:10:38.470Z,101293.23
2023-04-02T17:12:51.959Z,101300.11
2023-04-02T17:15:03.261Z,101303.52
2023-04-02T17:17:01.546Z,101308.61
2023-04-02T17:18:58.427Z,101311.56
2023-04-02T17:20:51.616Z,101314.21
2023-04-02T17:22:44.885Z,101325.10
2023-04-02T17:24:58.906Z,101329.00
2023-04-02T17:27:03.834Z,101330.49
2023-04-02T17:29:01.595Z,101330.83
2023-04-02T17:30:57.806Z,101339.20
2023-04-02T17:32:50.911Z,101336.54
2023-04-02T17:34:44.223Z,101341.21
2023-04-02T17:36:59.970Z,101346.34
2023-04-02T17:39:08.428Z,101356.10
2023-04-02T17:41:23.497Z,101361.19
2023-04-02T17:43:35.348Z,101369.08
2023-04-02T17:45:32.992Z,101374.02
2023-04-02T17:47:56.764Z,101376.08
2023-04-02T17:50:06.663Z,101377.22
2023-04-02T17:52:18.443Z,101381.90
2023-04-02T17:54:23.578Z,101389.61
2023-04-02T17:56:57.621Z,101395.95
2023-04-02T17:59:13.274Z,101394.52
2023-04-02T18:01:33.986Z,101398.85
2023-04-02T18:03:53.285Z,101405.83
2023-04-02T18:06:08.814Z,101407.83
2023-04-02T18:08:13.647Z,101408.67
2023-04-02T18:10:18.482Z,101411.87
2023-04-02T18:12:32.236Z,101418.78
2023-04-02T18:14:43.170Z,101424.33
2023-04-02T18:17:11.388Z,101424.17
2023-04-02T18:19:17.418Z,101431.27
2023-04-02T18:22:00.529Z,101434.80
2023-04-02T18:24:14.909Z,101439.43
2023-04-02T18:26:32.807Z,101444.39
2023-04-02T18:28:56.067Z,101446.48
2023-04-02T18:31:20.354Z,101447.90
2023-04-02T18:33:39.212Z,101447.48
2023-04-02T18:36:03.067Z,101449.73
2023-04-02T18:38:30.638Z,101451.11
2023-04-02T18:40:58.504Z,101447.76
2023-04-02T18:43:08.756Z,101452.23
2023-04-02T18:45:14.709Z,101454.85
2023-04-02T18:47:38.479Z,101457.17
2023-04-02T18:49:46.891Z,101461.71
2023-04-02T18:51:40.145Z,101464.72
2023-04-02T18:53:33.628Z,101471.65
2023-04-02T18:55:30.604Z,101476.32
2023-04-02T18:57:31.394Z,101479.79
2023-04-02T18:59:41.882Z,101480.50
2023-04-02T19:03:51.806Z,101490.17
2023-04-02T19:05:51.443Z,101493.35
2023-04-02T19:07:48.090Z,101496.12
2023-04-02T19:09:47.681Z,101494.16
2023-04-02T19:11:41.108Z,101501.73
2023-04-02T19:13:34.460Z,101505.44
2023-04-02T19:15:40.746Z,101504.66
2023-04-02T19:17:43.442Z,101509.48
2023-04-02T19:19:46.116Z,101515.34
2023-04-02T19:21:51.827Z,101512.87
2023-04-02T19:24:13.248Z,101512.46
2023-04-02T19:26:11.870Z,101521.10
2023-04-02T19:28:29.857Z,101522.64
2023-04-02T19:30:50.147Z,101523.59
2023-04-02T19:33:02.847Z,101524.86
2023-04-02T19:35:21.215Z,101527.77
2023-04-02T19:37:38.256Z,101529.88
2023-04-02T19:39:59.619Z,101535.65
2023-04-02T19:42:25.981Z,101531.74
2023-04-02T19:44:20.976Z,101533.82
2023-04-02T19:46:14.118Z,101538.40
2023-04-02T19:48:24.665Z,101541.27
2023-04-02T19:50:18.035Z,101539.42
2023-04-02T19:52:11.391Z,101546.70
2023-04-02T19:54:04.638Z,101546.85
2023-04-02T19:55:57.709Z,101550.27
2023-04-02T19:57:52.674Z,101550.89
2023-04-02T19:59:47.473Z,101550.30
2023-04-02T20:01:40.636Z,101554.54
2023-04-02T20:03:33.503Z,101558.19
2023-04-02T20:05:26.381Z,101556.21
2023-04-02T20:07:19.372Z,101558.13
2023-04-02T20:09:13.860Z,101558.80
2023-04-02T20:11:07.213Z,101559.03
2023-04-02T20:13:01.138Z,101559.88
2023-04-02T20:14:54.645Z,101564.17
2023-04-02T20:16:50.112Z,101562.85
2023-04-02T20:18:43.851Z,101567.66
2023-04-02T20:20:39.457Z,101568.05
2023-04-02T20:22:32.386Z,101569.14
2023-04-02T20:24:25.172Z,101573.02
2023-04-02T20:26:18.080Z,101576.27
2023-04-02T20:28:10.917Z,101575.71
2023-04-02T20:30:04.892Z,101582.05
2023-04-02T20:31:57.842Z,101584.85
2023-04-02T20:33:55.684Z,101589.56
2023-04-02T20:35:50.940Z,101590.40
2023-04-02T20:37:44.057Z,101594.35
2023-04-02T20:39:37.565Z,101597.77
2023-04-02T20:41:30.470Z,101598.74
2023-04-02T20:43:23.628Z,101600.35
2023-04-02T20:45:16.671Z,101603.98
2023-04-02T20:47:10.849Z,101607.27
2023-04-02T20:49:04.102Z,101606.95
2023-04-02T20:50:57.357Z,101610.08
2023-04-02T20:52:51.126Z,101615.25
2023-04-02T20:54:44.175Z,101615.73
2023-04-02T20:56:37.024Z,101620.73
2023-04-02T20:58:29.871Z,101622.48
2023-04-02T21:00:23.123Z,101622.13
2023-04-02T21:02:16.384Z,101625.05
2023-04-02T21:04:09.341Z,101629.32
2023-04-02T21:06:02.344Z,101631.30
2023-04-02T21:07:55.544Z,101628.65
2023-04-02T21:09:48.684Z,101630.00
2023-04-02T21:11:41.646Z,101629.77
2023-04-02T21:13:38.650Z,101632.98
2023-04-02T21:15:33.315Z,101632.64
2023-04-02T21:17:26.435Z,101636.09
2023-04-02T21:19:19.469Z,101631.86
2023-04-02T21:21:14.161Z,101633.20
2023-04-02T21:23:06.998Z,101635.83
2023-04-02T21:24:59.944Z,101638.67
2023-04-02T21:26:52.769Z,101637.54
2023-04-02T21:28:46.044Z,101642.23
2023-04-02T21:30:38.840Z,101647.43
2023-04-02T21:32:33.107Z,101648.64
2023-04-02T21:34:26.016Z,101649.86
2023-04-02T21:36:37.671Z,101652.13
2023-04-02T21:38:31.369Z,101656.95
2023-04-02T21:40:24.210Z,101660.42
2023-04-02T21:42:17.159Z,101659.20
2023-04-02T21:44:13.842Z,101656.30
2023-04-02T21:46:07.048Z,101658.95
2023-04-02T21:48:00.185Z,101662.04
2023-04-02T21:49:53.149Z,101667.16
2023-04-02T21:51:47.235Z,101667.42
2023-04-02T21:53:41.208Z,101665.68
2023-04-02T21:55:34.044Z,101665.78
2023-04-02T21:57:26.950Z,101668.66
2023-04-02T21:59:19.945Z,101666.32
2023-04-02T22:01:26.144Z,101669.45
2023-04-02T22:03:31.175Z,101674.41
2023-04-02T22:05:24.693Z,101674.95
2023-04-02T22:07:17.740Z,101675.41
2023-04-02T22:09:14.072Z,101681.87
2023-04-02T22:11:17.157Z,101678.46
2023-04-02T22:13:10.003Z,101683.02
2023-04-02T22:15:02.850Z,101680.81
2023-04-02T22:16:56.359Z,101683.69
2023-04-02T22:18:51.371Z,101683.17
2023-04-02T22:20:44.251Z,101684.72
2023-04-02T22:22:37.016Z,101690.88
2023-04-02T22:24:30.260Z,101690.30
2023-04-02T22:26:23.607Z,101691.86
2023-04-02T22:28:16.556Z,101694.41
2023-04-02T22:30:09.809Z,101695.63
2023-04-02T22:32:02.677Z,101695.58
2023-04-02T22:33:56.832Z,101698.87
2023-04-02T22:35:51.812Z,101697.38
2023-04-02T22:37:44.775Z,101697.20
2023-04-02T22:39:37.739Z,101698.98
2023-04-02T22:41:32.138Z,101700.36
2023-04-02T22:43:24.901Z,101703.20
2023-04-02T22:45:20.979Z,101707.57
2023-04-02T22:47:13.817Z,101712.27
2023-04-02T22:49:06.684Z,101711.99
2023-04-02T22:50:59.722Z,101711.14
2023-04-02T22:52:52.969Z,101712.66
2023-04-02T22:54:46.325Z,101719.15
2023-04-02T22:56:39.172Z,101719.35
2023-04-02T22:58:32.435Z,101719.14
2023-04-02T23:00:25.250Z,101722.14
2023-04-02T23:02:18.531Z,101723.50
2023-04-02T23:04:11.377Z,101730.25
2023-04-02T23:06:07.494Z,101727.30
2023-04-02T23:08:00.555Z,101730.35
2023-04-02T23:09:53.495Z,101733.86
2023-04-02T23:11:46.343Z,101730.76
2023-04-02T23:13:40.434Z,101735.63
2023-04-02T23:15:33.262Z,101732.70
2023-04-02T23:17:26.544Z,101736.95